createdAt,value
2023-04-15T00:00:14.635Z,99850.92
2023-04-15T00:01:20.078Z,99846
2023-04-15T00:02:25.782Z,99854.13
2023-04-15T00:03:32.084Z,99850.27
2023-04-15T00:04:37.771Z,99846.94
2023-04-15T00:05:43.430Z,99854.97
2023-04-15T00:06:48.730Z,99854.23
2023-04-15T00:07:54.006Z,99852.56
2023-04-15T00:08:59.732Z,99859.27
2023-04-15T00:10:05.812Z,99857.19
2023-04-15T00:11:11.158Z,99857.27
2023-04-15T00:12:16.463Z,99851.17
2023-04-15T00:13:21.752Z,99851.86
2023-04-15T00:14:27.284Z,99855.55
2023-04-15T00:15:32.571Z,99855.14
2023-04-15T00:16:37.925Z,99856.81
2023-04-15T00:17:45.602Z,99844.64
2023-04-15T00:18:51.074Z,99856.28
2023-04-15T00:19:56.373Z,99857.14
2023-04-15T00:21:01.743Z,99853.28
2023-04-15T00:22:07.015Z,99856.37
2023-04-15T00:23:12.305Z,99848.86
2023-04-15T00:24:17.668Z,99851.45
2023-04-15T00:25:22.945Z,99850.52
2023-04-15T00:26:28.224Z,99849.67
2023-04-15T00:27:33.517Z,99853.61
2023-04-15T00:28:38.800Z,99858.97
2023-04-15T00:29:46.687Z,99852.88
2023-04-15T00:30:52.070Z,99848.28
2023-04-15T00:31:57.389Z,99850.55
2023-04-15T00:33:02.799Z,99843.25
2023-04-15T00:34:08.100Z,99847.59
2023-04-15T00:35:13.449Z,99842
2023-04-15T00:36:18.777Z,99845.94
2023-04-15T00:37:24.112Z,99845.28
2023-04-15T00:38:29.437Z,99838.58
2023-04-15T00:39:34.826Z,99842.52
2023-04-15T00:40:40.138Z,99846.13
2023-04-15T00:41:45.442Z,99842.92
2023-04-15T00:42:50.770Z,99838.91
2023-04-15T00:43:56.099Z,99838.91
2023-04-15T00:45:01.479Z,99843.13
2023-04-15T00:46:06.816Z,99838.25
2023-04-15T00:47:12.233Z,99838.7
2023-04-15T00:48:17.579Z,99845.88
2023-04-15T00:49:22.956Z,99830.69
2023-04-15T00:50:28.283Z,99842.82
2023-04-15T00:51:33.626Z,99839.05
2023-04-15T00:52:39.034Z,99838.2
2023-04-15T00:53:44.406Z,99837.47
2023-04-15T00:54:49.723Z,99833.37
2023-04-15T00:55:55.061Z,99838.39
2023-04-15T00:57:00.334Z,99841.4
2023-04-15T00:58:05.831Z,99838.12
2023-04-15T00:59:11.162Z,99845.5
2023-04-15T01:00:16.502Z,99840.87
2023-04-15T01:01:21.835Z,99834.46
2023-04-15T01:02:27.446Z,99839.55
2023-04-15T01:03:33.577Z,99838.53
2023-04-15T01:04:39.755Z,99839.38
2023-04-15T01:05:45.092Z,99841.53
2023-04-15T01:06:50.427Z,99835.52
2023-04-15T01:07:55.816Z,99840.88
2023-04-15T01:09:01.440Z,99830.17
2023-04-15T01:10:07.541Z,99827.9
2023-04-15T01:11:12.864Z,99841.29
2023-04-15T01:12:18.208Z,99830.69
2023-04-15T01:13:23.504Z,99837.39
2023-04-15T01:14:28.830Z,99835.85
2023-04-15T01:15:34.155Z,99838.61
2023-04-15T01:16:39.442Z,99843.97
2023-04-15T01:17:44.834Z,99846.76
2023-04-15T01:18:50.223Z,99849.44
2023-04-15T01:19:55.628Z,99852.85
2023-04-15T01:21:00.986Z,99850.09
2023-04-15T01:22:06.307Z,99849.24
2023-04-15T01:23:11.621Z,99857.61
2023-04-15T01:24:17.002Z,99855.86
2023-04-15T01:25:22.309Z,99850.66
2023-04-15T01:26:27.641Z,99855.13
2023-04-15T01:27:32.933Z,99849.77
2023-04-15T01:28:38.240Z,99849.44
2023-04-15T01:29:43.550Z,99851.87
2023-04-15T01:30:48.894Z,99859.62
2023-04-15T01:31:54.323Z,99846.84
2023-04-15T01:33:00.025Z,99849.44
2023-04-15T01:34:05.453Z,99854.35
2023-04-15T01:35:10.812Z,99857.14
2023-04-15T01:36:16.117Z,99850
2023-04-15T01:37:21.452Z,99848.91
2023-04-15T01:38:26.835Z,99855.61
2023-04-15T01:39:32.115Z,99856.95
2023-04-15T01:40:37.499Z,99848.09
2023-04-15T01:41:42.901Z,99848.26
2023-04-15T01:42:48.195Z,99854.47
2023-04-15T01:43:53.613Z,99852.84
2023-04-15T01:44:58.902Z,99856.34
2023-04-15T01:46:04.220Z,99855.69
2023-04-15T01:47:09.575Z,99853.66
2023-04-15T01:48:14.889Z,99856.13
2023-04-15T01:49:20.477Z,99847.16
2023-04-15T01:50:25.807Z,99853.45
2023-04-15T01:51:31.177Z,99856.95
2023-04-15T01:52:36.515Z,99853.01
2023-04-15T01:53:41.853Z,99851.87
2023-04-15T01:54:47.173Z,99855.12
2023-04-15T01:55:52.481Z,99854.27
2023-04-15T01:56:57.790Z,99858.69
2023-04-15T01:58:03.129Z,99849.76
2023-04-15T01:59:08.424Z,99856.53
2023-04-15T02:00:13.696Z,99857.68
2023-04-15T02:01:20.268Z,99853.66
2023-04-15T02:02:25.790Z,99853.95
2023-04-15T02:03:31.398Z,99859.02
2023-04-15T02:04:36.953Z,99852.77
2023-04-15T02:05:42.257Z,99852.44
2023-04-15T02:06:47.558Z,99855
2023-04-15T02:07:52.896Z,99852.6
2023-04-15T02:08:58.231Z,99854.59
2023-04-15T02:10:04.083Z,99857.14
2023-04-15T02:11:09.407Z,99857.8
2023-04-15T02:12:14.736Z,99854.11
2023-04-15T02:13:21.059Z,99859.81
2023-04-15T02:14:26.346Z,99851.51
2023-04-15T02:15:31.656Z,99850.66
2023-04-15T02:16:37.236Z,99851.59
2023-04-15T02:17:42.667Z,99854.19
2023-04-15T02:18:48.125Z,99858.36
2023-04-15T02:19:53.451Z,99848.94
2023-04-15T02:20:59.021Z,99853.61
2023-04-15T02:22:04.350Z,99856.02
2023-04-15T02:23:09.644Z,99856.13
2023-04-15T02:24:14.946Z,99847
2023-04-15T02:25:20.284Z,99851.51
2023-04-15T02:26:25.618Z,99853.25
2023-04-15T02:27:30.919Z,99858.69
2023-04-15T02:28:36.248Z,99854.67
2023-04-15T02:29:41.564Z,99857.8
2023-04-15T02:30:46.850Z,99855.36
2023-04-15T02:31:52.259Z,99858.61
2023-04-15T02:32:57.719Z,99854.02
2023-04-15T02:34:03.173Z,99850.17
2023-04-15T02:35:08.460Z,99856.78
2023-04-15T02:36:13.807Z,99859.9
2023-04-15T02:37:19.125Z,99856.3
2023-04-15T02:38:24.479Z,99855.8
2023-04-15T02:39:30.018Z,99854.19
2023-04-15T02:40:35.313Z,99858.28
2023-04-15T02:41:40.631Z,99849.92
2023-04-15T02:42:45.975Z,99854.59
2023-04-15T02:43:51.356Z,99856.45
2023-04-15T02:44:56.664Z,99856.13
2023-04-15T02:46:01.996Z,99856.13
2023-04-15T02:47:07.409Z,99851.27
2023-04-15T02:48:15.735Z,99848.17
2023-04-15T02:49:21.063Z,99848.58
2023-04-15T02:50:26.385Z,99856.62
2023-04-15T02:51:31.710Z,99860.03
2023-04-15T02:52:37.026Z,99852.52
2023-04-15T02:53:42.360Z,99848.09
2023-04-15T02:54:47.688Z,99854.34
2023-04-15T02:55:53.033Z,99850.11
2023-04-15T02:56:58.349Z,99850
2023-04-15T02:58:03.691Z,99853.28
2023-04-15T02:59:09.059Z,99852.02
2023-04-15T03:00:14.410Z,99850.36
2023-04-15T03:01:19.803Z,99854.57
2023-04-15T03:02:25.290Z,99855.72
2023-04-15T03:03:31.102Z,99854.89
2023-04-15T03:04:36.603Z,99846.34
2023-04-15T03:05:41.915Z,99855.66
2023-04-15T03:06:47.290Z,99848.06
2023-04-15T03:07:52.600Z,99845.11
2023-04-15T03:08:57.935Z,99852.49
2023-04-15T03:10:03.468Z,99849.7
2023-04-15T03:11:08.792Z,99847.73
2023-04-15T03:12:14.090Z,99845.22
2023-04-15T03:13:19.355Z,99847.58
2023-04-15T03:14:24.667Z,99849.48
2023-04-15T03:15:30.081Z,99851.92
2023-04-15T03:16:35.482Z,99850.17
2023-04-15T03:17:40.937Z,99847.82
2023-04-15T03:18:46.350Z,99847.55
2023-04-15T03:19:51.639Z,99850.22
2023-04-15T03:20:56.984Z,99851.16
2023-04-15T03:22:02.329Z,99857.49
2023-04-15T03:23:07.668Z,99861.67
2023-04-15T03:24:12.964Z,99856.64
2023-04-15T03:25:18.308Z,99857.71
2023-04-15T03:26:23.645Z,99860.74
2023-04-15T03:27:28.979Z,99857.16
2023-04-15T03:28:34.336Z,99865.36
2023-04-15T03:29:39.633Z,99859.87
2023-04-15T03:30:44.965Z,99862.22
2023-04-15T03:31:50.292Z,99865.14
2023-04-15T03:32:55.676Z,99865.71
2023-04-15T03:34:01.119Z,99859.67
2023-04-15T03:35:06.427Z,99865.36
2023-04-15T03:36:11.725Z,99866.56
2023-04-15T03:37:17.066Z,99869.23
2023-04-15T03:38:22.391Z,99866.48
2023-04-15T03:39:27.710Z,99867.35
2023-04-15T03:40:33.061Z,99869.38
2023-04-15T03:41:38.396Z,99869.63
2023-04-15T03:42:43.816Z,99865.74
2023-04-15T03:43:49.141Z,99866.86
2023-04-15T03:44:54.445Z,99871.89
2023-04-15T03:46:02.696Z,99866.86
2023-04-15T03:47:08.046Z,99861.18
2023-04-15T03:48:19.503Z,99864.08
2023-04-15T03:49:24.837Z,99871.29
2023-04-15T03:50:30.195Z,99866.09
2023-04-15T03:51:35.500Z,99864.08
2023-04-15T03:52:40.798Z,99869.43
2023-04-15T03:53:46.134Z,99860.74
2023-04-15T03:54:51.492Z,99866.95
2023-04-15T03:55:56.811Z,99864.67
2023-04-15T03:57:05.142Z,99868.53
2023-04-15T03:58:10.448Z,99868.2
2023-04-15T03:59:15.717Z,99864.34
2023-04-15T04:00:21.020Z,99869.38
2023-04-15T04:01:26.326Z,99871.97
2023-04-15T04:02:31.833Z,99865.03
2023-04-15T04:03:37.566Z,99871.31
2023-04-15T04:04:43.488Z,99871.64
2023-04-15T04:05:51.918Z,99872.16
2023-04-15T04:06:57.208Z,99868.2
2023-04-15T04:08:02.510Z,99871.75
2023-04-15T04:09:07.870Z,99866.72
2023-04-15T04:10:13.149Z,99872.74
2023-04-15T04:11:18.463Z,99861.16
2023-04-15T04:12:23.744Z,99872.7
2023-04-15T04:13:29.081Z,99877.59
2023-04-15T04:14:34.414Z,99867.91
2023-04-15T04:15:39.820Z,99871.53
2023-04-15T04:16:45.254Z,99864.39
2023-04-15T04:17:50.849Z,99871.55
2023-04-15T04:18:56.216Z,99878.05
2023-04-15T04:20:01.614Z,99878.26
2023-04-15T04:21:06.930Z,99868.44
2023-04-15T04:22:12.281Z,99866.81
2023-04-15T04:23:17.600Z,99867.55
2023-04-15T04:24:22.938Z,99883.79
2023-04-15T04:25:28.247Z,99876.4
2023-04-15T04:26:33.572Z,99876.12
2023-04-15T04:27:38.881Z,99877.02
2023-04-15T04:28:44.254Z,99877.42
2023-04-15T04:29:49.567Z,99878.56
2023-04-15T04:30:54.910Z,99868.77
2023-04-15T04:32:00.346Z,99881.41
2023-04-15T04:33:08.392Z,99881.41
2023-04-15T04:34:13.702Z,99884
2023-04-15T04:35:19.006Z,99884.81
2023-04-15T04:36:24.326Z,99877.05
2023-04-15T04:37:29.685Z,99882.81
2023-04-15T04:38:34.979Z,99884.16
2023-04-15T04:39:40.284Z,99877.86
2023-04-15T04:40:45.559Z,99879.45
2023-04-15T04:41:50.873Z,99876.77
2023-04-15T04:42:56.218Z,99881.8
2023-04-15T04:44:01.548Z,99885.41
2023-04-15T04:45:06.883Z,99876.44
2023-04-15T04:46:12.398Z,99877.86
2023-04-15T04:47:17.798Z,99876.31
2023-04-15T04:48:23.080Z,99883.88
2023-04-15T04:49:28.437Z,99890.18
2023-04-15T04:50:33.752Z,99882.14
2023-04-15T04:51:39.084Z,99884.41
2023-04-15T04:52:44.396Z,99892.3
2023-04-15T04:53:49.741Z,99882.91
2023-04-15T04:54:55.880Z,99886.72
2023-04-15T04:56:01.207Z,99886.06
2023-04-15T04:57:06.507Z,99892.2
2023-04-15T04:58:11.841Z,99886.84
2023-04-15T04:59:19.388Z,99889.8
2023-04-15T05:00:24.779Z,99888.83
2023-04-15T05:01:30.217Z,99889.43
2023-04-15T05:02:35.867Z,99889.19
2023-04-15T05:03:41.487Z,99889.03
2023-04-15T05:04:46.944Z,99897.59
2023-04-15T05:05:52.267Z,99895.08
2023-04-15T05:06:57.600Z,99894.02
2023-04-15T05:08:02.970Z,99897.95
2023-04-15T05:09:08.267Z,99897.91
2023-04-15T05:10:13.598Z,99902.09
2023-04-15T05:11:18.939Z,99902.09
2023-04-15T05:12:24.262Z,99897.01
2023-04-15T05:13:29.599Z,99896.77
2023-04-15T05:14:34.936Z,99891.92
2023-04-15T05:15:40.308Z,99899.64
2023-04-15T05:16:45.701Z,99893.87
2023-04-15T05:17:51.133Z,99895.3
2023-04-15T05:18:56.605Z,99890.54
2023-04-15T05:20:01.944Z,99894.23
2023-04-15T05:21:07.245Z,99892.97
2023-04-15T05:22:12.586Z,99889.12
2023-04-15T05:23:20.152Z,99898.61
2023-04-15T05:24:25.476Z,99898.61
2023-04-15T05:25:30.802Z,99896.42
2023-04-15T05:26:36.137Z,99900.03
2023-04-15T05:27:41.468Z,99903.12
2023-04-15T05:28:46.810Z,99897.16
2023-04-15T05:29:52.166Z,99899.42
2023-04-15T05:30:57.587Z,99899.42
2023-04-15T05:32:03.040Z,99908.13
2023-04-15T05:33:08.357Z,99903.86
2023-04-15T05:34:13.812Z,99902.22
2023-04-15T05:35:19.646Z,99904.9
2023-04-15T05:36:25.215Z,99898.28
2023-04-15T05:37:30.498Z,99904.13
2023-04-15T05:38:35.822Z,99895.69
2023-04-15T05:39:41.137Z,99901.23
2023-04-15T05:40:46.437Z,99898.8
2023-04-15T05:41:51.767Z,99902.5
2023-04-15T05:42:57.048Z,99897.14
2023-04-15T05:44:02.342Z,99898.15
2023-04-15T05:45:07.746Z,99903.63
2023-04-15T05:46:13.122Z,99900.42
2023-04-15T05:47:18.583Z,99898.8
2023-04-15T05:48:23.928Z,99891.7
2023-04-15T05:49:29.262Z,99892.95
2023-04-15T05:50:34.611Z,99901.92
2023-04-15T05:51:39.921Z,99902.09
2023-04-15T05:52:45.224Z,99907.69
2023-04-15T05:53:50.561Z,99910.81
2023-04-15T05:54:55.857Z,99905.78
2023-04-15T05:56:01.180Z,99899.08
2023-04-15T05:57:06.505Z,99912.55
2023-04-15T05:58:11.834Z,99909.47
2023-04-15T05:59:17.223Z,99914.02
2023-04-15T06:00:22.550Z,99911.33
2023-04-15T06:01:27.835Z,99910.64
2023-04-15T06:02:33.399Z,99913.73
2023-04-15T06:03:39.400Z,99913.66
2023-04-15T06:04:45.066Z,99917.06
2023-04-15T06:05:50.439Z,99914.8
2023-04-15T06:06:55.733Z,99916.05
2023-04-15T06:08:01.026Z,99917.31
2023-04-15T06:09:06.416Z,99914.31
2023-04-15T06:10:11.768Z,99914.39
2023-04-15T06:11:17.103Z,99915.78
2023-04-15T06:12:22.517Z,99916.8
2023-04-15T06:13:27.880Z,99918.45
2023-04-15T06:14:33.198Z,99922.15
2023-04-15T06:15:38.488Z,99924.83
2023-04-15T06:16:44.015Z,99926.25
2023-04-15T06:17:49.531Z,99924.14
2023-04-15T06:18:54.847Z,99927.1
2023-04-15T06:20:00.204Z,99926.17
2023-04-15T06:21:05.691Z,99924.83
2023-04-15T06:22:10.992Z,99926.69
2023-04-15T06:23:16.357Z,99926.58
2023-04-15T06:24:21.696Z,99935.22
2023-04-15T06:25:27.065Z,99934.81
2023-04-15T06:26:32.372Z,99929.05
2023-04-15T06:27:37.700Z,99932.13
2023-04-15T06:28:43.009Z,99927.92
2023-04-15T06:29:48.300Z,99929.86
2023-04-15T06:30:53.624Z,99933.72
2023-04-15T06:31:59.169Z,99930.59
2023-04-15T06:33:04.689Z,99932.95
2023-04-15T06:34:10.013Z,99937.48
2023-04-15T06:35:15.320Z,99935.55
2023-04-15T06:36:20.610Z,99936.84
2023-04-15T06:37:25.964Z,99939.84
2023-04-15T06:38:32.287Z,99934.48
2023-04-15T06:39:37.569Z,99934.48
2023-04-15T06:40:42.879Z,99938.17
2023-04-15T06:41:48.192Z,99937.24
2023-04-15T06:42:53.482Z,99934.73
2023-04-15T06:43:58.814Z,99939.76
2023-04-15T06:45:04.250Z,99941.1
2023-04-15T06:46:09.701Z,99939.65
2023-04-15T06:47:15.218Z,99943.94
2023-04-15T06:48:20.553Z,99945.45
2023-04-15T06:49:25.860Z,99952.72
2023-04-15T06:50:31.146Z,99943.94
2023-04-15T06:51:37.465Z,99948.53
2023-04-15T06:52:42.763Z,99946.27
2023-04-15T06:53:48.110Z,99948.27
2023-04-15T06:54:53.399Z,99951.67
2023-04-15T06:55:58.681Z,99954.55
2023-04-15T06:57:03.993Z,99962.59
2023-04-15T06:58:09.271Z,99948.34
2023-04-15T06:59:14.587Z,99952.69
2023-04-15T07:00:19.878Z,99954.77
2023-04-15T07:01:25.269Z,99953.59
2023-04-15T07:02:30.899Z,99954.36
2023-04-15T07:03:36.499Z,99947.58
2023-04-15T07:04:41.965Z,99964.56
2023-04-15T07:05:47.261Z,99956.81
2023-04-15T07:06:52.729Z,99961.36
2023-04-15T07:07:58.027Z,99961.58
2023-04-15T07:09:03.864Z,99955.18
2023-04-15T07:10:09.968Z,99956.22
2023-04-15T07:11:15.308Z,99961.48
2023-04-15T07:12:20.603Z,99965.97
2023-04-15T07:13:25.926Z,99961.45
2023-04-15T07:14:31.253Z,99968.02
2023-04-15T07:15:36.557Z,99965.69
2023-04-15T07:16:41.937Z,99967.17
2023-04-15T07:17:47.370Z,99968.59
2023-04-15T07:18:52.814Z,99965.97
2023-04-15T07:19:58.169Z,99971.06
2023-04-15T07:21:03.488Z,99974.48
2023-04-15T07:22:08.791Z,99972.2
2023-04-15T07:23:14.126Z,99977.56
2023-04-15T07:24:19.427Z,99977.48
2023-04-15T07:25:24.796Z,99977.13
2023-04-15T07:26:30.096Z,99984.81
2023-04-15T07:27:35.394Z,99979.84
2023-04-15T07:28:40.674Z,99980.01
2023-04-15T07:29:45.950Z,99980.47
2023-04-15T07:30:51.411Z,99980.47
2023-04-15T07:31:56.858Z,99984.3
2023-04-15T07:33:02.239Z,99981.86
2023-04-15T07:34:07.821Z,99982.39
2023-04-15T07:35:13.166Z,99990.09
2023-04-15T07:36:18.508Z,99990.7
2023-04-15T07:37:23.908Z,99994.8
2023-04-15T07:38:29.222Z,99992.72
2023-04-15T07:39:34.518Z,99991.66
2023-04-15T07:40:39.862Z,99986.79
2023-04-15T07:41:45.227Z,99990.07
2023-04-15T07:42:50.692Z,99987.88
2023-04-15T07:43:56.105Z,99986.66
2023-04-15T07:45:01.681Z,99990.67
2023-04-15T07:46:07.084Z,99991.57
2023-04-15T07:47:12.466Z,99989.98
2023-04-15T07:48:17.771Z,99990.78
2023-04-15T07:49:23.089Z,99994.66
2023-04-15T07:50:28.432Z,99988.98
2023-04-15T07:51:33.762Z,99992.01
2023-04-15T07:52:39.124Z,99995.75
2023-04-15T07:53:44.632Z,99996.74
2023-04-15T07:54:49.976Z,100001.3
2023-04-15T07:55:55.276Z,99997.89
2023-04-15T07:57:00.671Z,100000.84
2023-04-15T07:58:06.023Z,100000.52
2023-04-15T07:59:11.393Z,99999.42
2023-04-15T08:00:16.731Z,100004.27
2023-04-15T08:01:22.043Z,100002.27
2023-04-15T08:02:27.525Z,100004.86
2023-04-15T08:03:33.379Z,100002.73
2023-04-15T08:05:45.056Z,100001.91
2023-04-15T08:06:50.377Z,100005.67
2023-04-15T08:07:55.820Z,100005.61
2023-04-15T08:09:01.569Z,100003.13
2023-04-15T08:10:07.370Z,100006.81
2023-04-15T08:11:12.704Z,100009.83
2023-04-15T08:12:18.052Z,100007.47
2023-04-15T08:13:23.380Z,100008.3
2023-04-15T08:14:28.725Z,100016.5
2023-04-15T08:15:34.048Z,100014.97
2023-04-15T08:16:39.569Z,100016.39
2023-04-15T08:17:44.962Z,100020.84
2023-04-15T08:18:50.432Z,100010.34
2023-04-15T08:19:55.822Z,100014.28
2023-04-15T08:21:01.157Z,100011.94
2023-04-15T08:22:16.063Z,100011.53
2023-04-15T08:23:25.546Z,100015.88
2023-04-15T08:24:31.046Z,100012.54
2023-04-15T08:25:36.359Z,100014.81
2023-04-15T08:26:41.669Z,100015.22
2023-04-15T08:27:47.033Z,100014.64
2023-04-15T08:28:52.375Z,100019.51
2023-04-15T08:29:57.879Z,100015.9
2023-04-15T08:31:03.223Z,100016.97
2023-04-15T08:32:08.643Z,100016.86
2023-04-15T08:33:13.985Z,100018.8
2023-04-15T08:34:19.307Z,100018.8
2023-04-15T08:35:24.661Z,100016.61
2023-04-15T08:36:30.012Z,100019.89
2023-04-15T08:37:35.398Z,100015.88
2023-04-15T08:38:40.744Z,100015.36
2023-04-15T08:39:46.076Z,100024.24
2023-04-15T08:40:51.954Z,100018.36
2023-04-15T08:41:57.447Z,100023.23
2023-04-15T08:43:02.849Z,100027.5
2023-04-15T08:44:08.170Z,100027.5
2023-04-15T08:45:13.512Z,100023.81
2023-04-15T08:46:19.000Z,100025.56
2023-04-15T08:47:24.617Z,100029.5
2023-04-15T08:48:30.057Z,100033.08
2023-04-15T08:49:35.394Z,100030.59
2023-04-15T08:50:40.974Z,100027.58
2023-04-15T08:51:46.301Z,100031.52
2023-04-15T08:52:51.628Z,100038.71
2023-04-15T08:53:57.017Z,100033.95
2023-04-15T08:55:02.372Z,100041.58
2023-04-15T08:56:07.758Z,100045.08
2023-04-15T08:57:13.103Z,100042.23
2023-04-15T08:58:18.451Z,100044.73
2023-04-15T08:59:23.916Z,100047.11
2023-04-15T09:00:29.260Z,100048.98
2023-04-15T09:01:34.761Z,100043.42
2023-04-15T09:02:40.675Z,100048.36
2023-04-15T09:03:46.504Z,100046.95
2023-04-15T09:04:51.990Z,100045.45
2023-04-15T09:05:57.320Z,100049.17
2023-04-15T09:07:02.676Z,100053.21
2023-04-15T09:08:08.058Z,100059.02
2023-04-15T09:09:13.526Z,100055.56
2023-04-15T09:10:18.973Z,100056.91
2023-04-15T09:11:24.340Z,100062.78
2023-04-15T09:12:29.716Z,100062.78
2023-04-15T09:13:35.046Z,100062.38
2023-04-15T09:14:40.373Z,100064.53
2023-04-15T09:15:45.703Z,100067.29
2023-04-15T09:16:51.914Z,100070.49
2023-04-15T09:17:57.384Z,100068.22
2023-04-15T09:19:03.149Z,100075.44
2023-04-15T09:20:08.489Z,100073.09
2023-04-15T09:21:14.145Z,100068.22
2023-04-15T09:22:19.556Z,100079.62
2023-04-15T09:23:24.866Z,100074.86
2023-04-15T09:24:30.205Z,100081.05
2023-04-15T09:25:36.478Z,100081.23
2023-04-15T09:26:41.895Z,100075.55
2023-04-15T09:27:47.233Z,100077.21
2023-04-15T09:28:52.635Z,100074.2
2023-04-15T09:29:57.976Z,100079.75
2023-04-15T09:31:03.433Z,100072.28
2023-04-15T09:32:08.883Z,100075.56
2023-04-15T09:33:14.185Z,100071.95
2023-04-15T09:34:19.564Z,100081
2023-04-15T09:35:24.863Z,100078.52
2023-04-15T09:36:30.269Z,100072.22
2023-04-15T09:37:35.678Z,100079.59
2023-04-15T09:38:41.034Z,100079.11
2023-04-15T09:39:46.381Z,100079.27
2023-04-15T09:40:51.718Z,100077.52
2023-04-15T09:41:57.041Z,100075.85
2023-04-15T09:43:02.395Z,100081.7
2023-04-15T09:44:07.746Z,100079.02
2023-04-15T09:45:13.064Z,100078.03
2023-04-15T09:46:18.485Z,100077.54
2023-04-15T09:47:24.081Z,100078.16
2023-04-15T09:48:29.468Z,100076.47
2023-04-15T09:49:34.909Z,100080.56
2023-04-15T09:50:41.336Z,100082.66
2023-04-15T09:52:05.929Z,100076.22
2023-04-15T09:53:11.790Z,100079.77
2023-04-15T09:54:17.118Z,100071.55
2023-04-15T09:55:22.464Z,100074.58
2023-04-15T09:56:27.822Z,100071.49
2023-04-15T09:57:33.155Z,100072.08
2023-04-15T09:58:38.500Z,100079.18
2023-04-15T09:59:43.861Z,100080.45
2023-04-15T10:00:49.297Z,100073.77
2023-04-15T10:01:55.035Z,100080.28
2023-04-15T10:03:00.789Z,100081.3
2023-04-15T10:04:07.342Z,100080.06
2023-04-15T10:05:13.061Z,100084.37
2023-04-15T10:06:18.431Z,100079.12
2023-04-15T10:07:23.748Z,100082.45
2023-04-15T10:08:29.102Z,100089.31
2023-04-15T10:09:34.459Z,100086.71
2023-04-15T10:10:39.938Z,100087.56
2023-04-15T10:11:45.300Z,100093
2023-04-15T10:12:50.611Z,100090.92
2023-04-15T10:13:56.334Z,100088.91
2023-04-15T10:15:01.668Z,100088.25
2023-04-15T10:16:07.280Z,100090.17
2023-04-15T10:17:12.841Z,100095.34
2023-04-15T10:18:18.184Z,100099.09
2023-04-15T10:19:23.510Z,100099.34
2023-04-15T10:20:28.859Z,100100.61
2023-04-15T10:21:34.182Z,100094.66
2023-04-15T10:22:39.523Z,100091.98
2023-04-15T10:23:44.831Z,100089.81
2023-04-15T10:24:50.222Z,100090.37
2023-04-15T10:25:55.684Z,100098.59
2023-04-15T10:27:01.062Z,100096.33
2023-04-15T10:28:06.490Z,100097.06
2023-04-15T10:29:11.832Z,100097.58
2023-04-15T10:30:17.233Z,100100.19
2023-04-15T10:31:22.624Z,100101.6
2023-04-15T10:32:28.123Z,100100.75
2023-04-15T10:33:33.673Z,100105.7
2023-04-15T10:34:39.018Z,100106.62
2023-04-15T10:35:44.335Z,100112.13
2023-04-15T10:36:49.657Z,100110.63
2023-04-15T10:37:54.975Z,100110.11
2023-04-15T10:39:00.352Z,100106.7
2023-04-15T10:40:05.708Z,100105.95
2023-04-15T10:41:11.029Z,100107.63
2023-04-15T10:42:16.402Z,100108.78
2023-04-15T10:43:21.753Z,100111.98
2023-04-15T10:44:27.071Z,100111.98
2023-04-15T10:45:32.400Z,100110.64
2023-04-15T10:46:37.829Z,100110.12
2023-04-15T10:47:43.300Z,100110.23
2023-04-15T10:48:48.655Z,100113.07
2023-04-15T10:49:54.055Z,100110.8
2023-04-15T10:50:59.663Z,100116.83
2023-04-15T10:52:04.991Z,100109.3
2023-04-15T10:53:10.350Z,100114.57
2023-04-15T10:54:15.669Z,100107.42
2023-04-15T10:55:21.043Z,100113.17
2023-04-15T10:56:26.386Z,100107.73
2023-04-15T10:57:31.770Z,100112.82
2023-04-15T10:58:37.092Z,100112.48
2023-04-15T10:59:42.491Z,100109.56
2023-04-15T11:00:47.839Z,100115.88
2023-04-15T11:01:53.598Z,100114.38
2023-04-15T11:02:59.826Z,100114.79
2023-04-15T11:04:05.957Z,100110.61
2023-04-15T11:05:12.164Z,100119.64
2023-04-15T11:06:17.523Z,100119.31
2023-04-15T11:07:22.884Z,100118.3
2023-04-15T11:08:28.192Z,100120.98
2023-04-15T11:09:33.518Z,100123.66
2023-04-15T11:10:38.921Z,100126.34
2023-04-15T11:11:46.439Z,100122.66
2023-04-15T11:12:51.840Z,100121.47
2023-04-15T11:13:57.267Z,100129.51
2023-04-15T11:15:02.604Z,100128.09
2023-04-15T11:16:08.047Z,100127.23
2023-04-15T11:17:13.377Z,100129.59
2023-04-15T11:18:18.746Z,100129.7
2023-04-15T11:19:24.167Z,100134.12
2023-04-15T11:20:29.493Z,100132.88
2023-04-15T11:21:34.827Z,100132.73
2023-04-15T11:22:40.143Z,100138.58
2023-04-15T11:23:46.582Z,100136.75
2023-04-15T11:24:52.029Z,100137.23
2023-04-15T11:25:57.448Z,100136.75
2023-04-15T11:27:03.835Z,100140
2023-04-15T11:28:12.454Z,100144.2
2023-04-15T11:29:17.978Z,100143.69
2023-04-15T11:30:23.589Z,100146.88
2023-04-15T11:31:29.045Z,100148.22
2023-04-15T11:32:34.598Z,100146.55
2023-04-15T11:33:40.027Z,100151.91
2023-04-15T11:34:45.470Z,100154.27
2023-04-15T11:35:51.113Z,100161.7
2023-04-15T11:36:56.508Z,100157.35
2023-04-15T11:38:01.865Z,100156.45
2023-04-15T11:39:07.203Z,100150.77
2023-04-15T11:40:12.575Z,100157.02
2023-04-15T11:41:17.938Z,100155.79
2023-04-15T11:42:23.318Z,100152.52
2023-04-15T11:43:28.643Z,100157.02
2023-04-15T11:44:33.955Z,100158.47
2023-04-15T11:45:39.393Z,100158.03
2023-04-15T11:46:46.849Z,100159.48
2023-04-15T11:47:52.387Z,100156.8
2023-04-15T11:48:57.757Z,100154.94
2023-04-15T11:50:03.101Z,100155.95
2023-04-15T11:51:08.460Z,100160.16
2023-04-15T11:52:16.105Z,100159.97
2023-04-15T11:53:21.504Z,100162.31
2023-04-15T11:54:26.852Z,100160.38
2023-04-15T11:55:32.164Z,100160.89
2023-04-15T11:56:37.608Z,100168.94
2023-04-15T11:57:42.933Z,100160.98
2023-04-15T11:58:48.422Z,100160.83
2023-04-15T11:59:53.796Z,100168.09
2023-04-15T12:01:01.541Z,100168.88
2023-04-15T12:02:07.154Z,100166.36
2023-04-15T12:03:13.087Z,100165.87
2023-04-15T12:04:21.602Z,100169.89
2023-04-15T12:05:29.606Z,100173.24
2023-04-15T12:06:35.036Z,100180.88
2023-04-15T12:07:40.439Z,100180.69
2023-04-15T12:08:45.793Z,100176.74
2023-04-15T12:09:51.107Z,100178.41
2023-04-15T12:10:56.494Z,100179.53
2023-04-15T12:12:01.826Z,100181.22
2023-04-15T12:13:07.231Z,100180.95
2023-04-15T12:14:12.554Z,100180.69
2023-04-15T12:15:17.890Z,100183.89
2023-04-15T12:16:23.417Z,100184.31
2023-04-15T12:17:28.961Z,100181.97
2023-04-15T12:18:55.008Z,100188.92
2023-04-15T12:20:00.418Z,100186.91
2023-04-15T12:21:05.820Z,100185.32
2023-04-15T12:22:11.160Z,100190.83
2023-04-15T12:23:16.597Z,100187.48
2023-04-15T12:24:21.939Z,100191.95
2023-04-15T12:25:27.292Z,100190.61
2023-04-15T12:26:32.610Z,100188.94
2023-04-15T12:27:37.954Z,100185.33
2023-04-15T12:28:43.272Z,100187.27
2023-04-15T12:29:48.612Z,100202.55
2023-04-15T12:30:54.078Z,100195.52
2023-04-15T12:31:59.516Z,100188.08
2023-04-15T12:33:04.963Z,100201.48
2023-04-15T12:34:10.384Z,100198.05
2023-04-15T12:35:15.712Z,100201.66
2023-04-15T12:36:21.072Z,100203.75
2023-04-15T12:37:26.455Z,100203.34
2023-04-15T12:38:31.772Z,100201.33
2023-04-15T12:39:37.088Z,100200.33
2023-04-15T12:40:42.408Z,100204.42
2023-04-15T12:41:47.731Z,100203.82
2023-04-15T12:42:53.070Z,100203.56
2023-04-15T12:43:58.409Z,100209.85
2023-04-15T12:45:03.787Z,100208.44